sensor_id;sensor_type;location;lat;lon;timestamp;P1;durP1;ratioP1;P2;durP2;ratioP2
68398;SDS011;56258;52.196;13.868;2022-07-22T00:00:53;6.88;;;4.07;;
68398;SDS011;56258;52.196;13.868;2022-07-22T00:03:20;7.20;;;3.70;;
68398;SDS011;56258;52.196;13.868;2022-07-22T00:05:46;7.15;;;3.90;;
68398;SDS011;56258;52.196;13.868;2022-07-22T00:08:13;6.67;;;3.60;;
68398;SDS011;56258;52.196;13.868;2022-07-22T00:10:40;6.80;;;3.60;;
68398;SDS011;56258;52.196;13.868;2022-07-22T00:13:07;6.25;;;3.25;;
68398;SDS011;56258;52.196;13.868;2022-07-22T00:15:34;6.35;;;3.28;;
68398;SDS011;56258;52.196;13.868;2022-07-22T00:18:01;7.05;;;3.63;;
68398;SDS011;56258;52.196;13.868;2022-07-22T00:20:27;6.67;;;3.53;;
68398;SDS011;56258;52.196;13.868;2022-07-22T00:22:54;6.50;;;3.70;;
68398;SDS011;56258;52.196;13.868;2022-07-22T00:25:21;7.13;;;3.53;;
68398;SDS011;56258;52.196;13.868;2022-07-22T00:27:48;6.53;;;3.38;;
68398;SDS011;56258;52.196;13.868;2022-07-22T00:30:14;6.60;;;3.80;;
68398;SDS011;56258;52.196;13.868;2022-07-22T00:32:41;6.27;;;3.50;;
68398;SDS011;56258;52.196;13.868;2022-07-22T00:35:08;6.03;;;3.28;;
68398;SDS011;56258;52.196;13.868;2022-07-22T00:37:35;7.25;;;3.65;;
68398;SDS011;56258;52.196;13.868;2022-07-22T00:40:02;6.55;;;3.65;;
68398;SDS011;56258;52.196;13.868;2022-07-22T00:42:29;7.40;;;4.03;;
68398;SDS011;56258;52.196;13.868;2022-07-22T00:44:56;6.73;;;3.60;;
68398;SDS011;56258;52.196;13.868;2022-07-22T00:47:23;6.25;;;3.40;;
68398;SDS011;56258;52.196;13.868;2022-07-22T00:49:50;6.25;;;3.75;;
68398;SDS011;56258;52.196;13.868;2022-07-22T00:52:18;6.22;;;3.40;;
68398;SDS011;56258;52.196;13.868;2022-07-22T00:54:45;6.13;;;3.25;;
68398;SDS011;56258;52.196;13.868;2022-07-22T00:57:12;6.43;;;3.43;;
68398;SDS011;56258;52.196;13.868;2022-07-22T00:59:39;6.55;;;3.40;;
68398;SDS011;56258;52.196;13.868;2022-07-22T01:02:06;5.88;;;3.10;;
68398;SDS011;56258;52.196;13.868;2022-07-22T01:04:33;6.30;;;3.70;;
68398;SDS011;56258;52.196;13.868;2022-07-22T01:07:00;6.43;;;3.65;;
68398;SDS011;56258;52.196;13.868;2022-07-22T01:09:27;6.73;;;3.77;;
68398;SDS011;56258;52.196;13.868;2022-07-22T01:11:53;6.40;;;3.72;;
68398;SDS011;56258;52.196;13.868;2022-07-22T01:14:20;6.55;;;3.58;;
68398;SDS011;56258;52.196;13.868;2022-07-22T01:16:47;6.40;;;3.53;;
68398;SDS011;56258;52.196;13.868;2022-07-22T01:19:15;6.40;;;3.38;;
68398;SDS011;56258;52.196;13.868;2022-07-22T01:21:42;6.43;;;3.07;;
68398;SDS011;56258;52.196;13.868;2022-07-22T01:24:09;6.32;;;3.50;;
68398;SDS011;56258;52.196;13.868;2022-07-22T01:26:35;6.55;;;3.60;;
68398;SDS011;56258;52.196;13.868;2022-07-22T01:29:02;6.40;;;3.60;;
68398;SDS011;56258;52.196;13.868;2022-07-22T01:31:29;6.13;;;3.20;;
68398;SDS011;56258;52.196;13.868;2022-07-22T01:33:56;6.00;;;3.30;;
68398;SDS011;56258;52.196;13.868;2022-07-22T01:36:23;6.35;;;3.40;;
68398;SDS011;56258;52.196;13.868;2022-07-22T01:38:50;6.28;;;3.40;;
68398;SDS011;56258;52.196;13.868;2022-07-22T01:41:17;6.18;;;3.35;;
68398;SDS011;56258;52.196;13.868;2022-07-22T01:43:44;6.53;;;3.40;;
68398;SDS011;56258;52.196;13.868;2022-07-22T01:46:11;6.43;;;3.50;;
68398;SDS011;56258;52.196;13.868;2022-07-22T01:48:37;6.88;;;3.42;;
68398;SDS011;56258;52.196;13.868;2022-07-22T01:51:05;7.20;;;3.85;;
68398;SDS011;56258;52.196;13.868;2022-07-22T01:53:32;6.38;;;3.45;;
68398;SDS011;56258;52.196;13.868;2022-07-22T01:55:58;6.45;;;3.60;;
68398;SDS011;56258;52.196;13.868;2022-07-22T01:58:25;7.00;;;3.70;;
68398;SDS011;56258;52.196;13.868;2022-07-22T02:00:52;6.25;;;3.42;;
68398;SDS011;56258;52.196;13.868;2022-07-22T02:03:19;6.28;;;3.40;;
68398;SDS011;56258;52.196;13.868;2022-07-22T02:05:45;6.00;;;3.10;;
68398;SDS011;56258;52.196;13.868;2022-07-22T02:08:12;6.20;;;3.53;;
68398;SDS011;56258;52.196;13.868;2022-07-22T02:10:40;6.90;;;3.53;;
68398;SDS011;56258;52.196;13.868;2022-07-22T02:13:07;6.40;;;3.35;;
68398;SDS011;56258;52.196;13.868;2022-07-22T02:15:34;6.25;;;3.17;;
68398;SDS011;56258;52.196;13.868;2022-07-22T02:18:08;6.60;;;3.60;;
68398;SDS011;56258;52.196;13.868;2022-07-22T02:20:39;6.13;;;3.38;;
68398;SDS011;56258;52.196;13.868;2022-07-22T02:23:06;6.20;;;3.07;;
68398;SDS011;56258;52.196;13.868;2022-07-22T02:25:33;6.07;;;3.40;;
68398;SDS011;56258;52.196;13.868;2022-07-22T02:28:00;6.60;;;3.40;;
68398;SDS011;56258;52.196;13.868;2022-07-22T02:30:27;6.70;;;3.70;;
68398;SDS011;56258;52.196;13.868;2022-07-22T02:32:54;6.63;;;3.40;;
68398;SDS011;56258;52.196;13.868;2022-07-22T02:35:20;6.43;;;3.40;;
68398;SDS011;56258;52.196;13.868;2022-07-22T02:37:47;6.60;;;3.10;;
68398;SDS011;56258;52.196;13.868;2022-07-22T02:40:14;6.25;;;3.22;;
68398;SDS011;56258;52.196;13.868;2022-07-22T02:42:40;5.82;;;3.13;;
68398;SDS011;56258;52.196;13.868;2022-07-22T02:45:07;6.88;;;3.67;;
68398;SDS011;56258;52.196;13.868;2022-07-22T02:47:34;6.60;;;3.37;;
68398;SDS011;56258;52.196;13.868;2022-07-22T02:50:02;6.35;;;3.42;;
68398;SDS011;56258;52.196;13.868;2022-07-22T02:52:29;7.00;;;3.38;;
68398;SDS011;56258;52.196;13.868;2022-07-22T02:54:55;6.50;;;3.42;;
68398;SDS011;56258;52.196;13.868;2022-07-22T02:57:22;6.50;;;3.55;;
68398;SDS011;56258;52.196;13.868;2022-07-22T02:59:48;6.60;;;3.40;;
68398;SDS011;56258;52.196;13.868;2022-07-22T03:02:15;6.22;;;3.30;;
68398;SDS011;56258;52.196;13.868;2022-07-22T03:04:42;6.28;;;3.30;;
68398;SDS011;56258;52.196;13.868;2022-07-22T03:07:08;6.53;;;3.40;;
68398;SDS011;56258;52.196;13.868;2022-07-22T03:09:35;6.90;;;3.50;;
68398;SDS011;56258;52.196;13.868;2022-07-22T03:12:02;6.57;;;3.50;;
68398;SDS011;56258;52.196;13.868;2022-07-22T03:14:29;5.88;;;3.00;;
68398;SDS011;56258;52.196;13.868;2022-07-22T03:16:55;6.68;;;3.67;;
68398;SDS011;56258;52.196;13.868;2022-07-22T03:19:22;6.28;;;3.45;;
68398;SDS011;56258;52.196;13.868;2022-07-22T03:21:49;6.40;;;3.30;;
68398;SDS011;56258;52.196;13.868;2022-07-22T03:24:15;6.67;;;3.30;;
68398;SDS011;56258;52.196;13.868;2022-07-22T03:26:42;6.20;;;3.20;;
68398;SDS011;56258;52.196;13.868;2022-07-22T03:29:09;6.35;;;3.47;;
68398;SDS011;56258;52.196;13.868;2022-07-22T03:31:35;6.30;;;3.17;;
68398;SDS011;56258;52.196;13.868;2022-07-22T03:34:02;7.68;;;3.50;;
68398;SDS011;56258;52.196;13.868;2022-07-22T03:36:29;6.43;;;3.53;;
68398;SDS011;56258;52.196;13.868;2022-07-22T03:38:56;6.50;;;3.30;;
68398;SDS011;56258;52.196;13.868;2022-07-22T03:41:23;6.07;;;3.30;;
68398;SDS011;56258;52.196;13.868;2022-07-22T03:43:50;6.93;;;3.25;;
68398;SDS011;56258;52.196;13.868;2022-07-22T03:46:16;6.25;;;3.40;;
68398;SDS011;56258;52.196;13.868;2022-07-22T03:48:43;6.10;;;3.07;;
68398;SDS011;56258;52.196;13.868;2022-07-22T03:51:10;6.78;;;3.83;;
68398;SDS011;56258;52.196;13.868;2022-07-22T03:53:37;6.15;;;3.50;;
68398;SDS011;56258;52.196;13.868;2022-07-22T03:56:03;6.10;;;3.20;;
68398;SDS011;56258;52.196;13.868;2022-07-22T03:58:30;7.03;;;3.60;;
68398;SDS011;56258;52.196;13.868;2022-07-22T04:00:57;6.57;;;3.53;;
68398;SDS011;56258;52.196;13.868;2022-07-22T04:03:24;6.40;;;3.63;;
68398;SDS011;56258;52.196;13.868;2022-07-22T04:05:50;6.18;;;3.55;;
68398;SDS011;56258;52.196;13.868;2022-07-22T04:08:17;6.05;;;3.40;;
68398;SDS011;56258;52.196;13.868;2022-07-22T04:10:44;6.95;;;3.67;;
68398;SDS011;56258;52.196;13.868;2022-07-22T04:13:11;6.63;;;3.50;;
68398;SDS011;56258;52.196;13.868;2022-07-22T04:15:38;6.60;;;3.55;;
68398;SDS011;56258;52.196;13.868;2022-07-22T04:18:04;6.15;;;3.10;;
68398;SDS011;56258;52.196;13.868;2022-07-22T04:20:31;6.25;;;3.70;;
68398;SDS011;56258;52.196;13.868;2022-07-22T04:22:57;6.45;;;3.47;;
68398;SDS011;56258;52.196;13.868;2022-07-22T04:25:24;6.67;;;3.43;;
68398;SDS011;56258;52.196;13.868;2022-07-22T04:27:51;5.90;;;3.40;;
68398;SDS011;56258;52.196;13.868;2022-07-22T04:30:18;6.40;;;3.65;;
68398;SDS011;56258;52.196;13.868;2022-07-22T04:32:45;6.53;;;3.10;;
68398;SDS011;56258;52.196;13.868;2022-07-22T04:35:12;6.47;;;3.10;;
68398;SDS011;56258;52.196;13.868;2022-07-22T04:37:39;6.53;;;3.60;;
68398;SDS011;56258;52.196;13.868;2022-07-22T04:40:05;6.20;;;3.38;;
68398;SDS011;56258;52.196;13.868;2022-07-22T04:42:34;6.45;;;3.40;;
68398;SDS011;56258;52.196;13.868;2022-07-22T04:45:00;6.35;;;3.42;;
68398;SDS011;56258;52.196;13.868;2022-07-22T04:47:27;6.35;;;3.47;;
68398;SDS011;56258;52.196;13.868;2022-07-22T04:49:54;6.00;;;3.13;;
68398;SDS011;56258;52.196;13.868;2022-07-22T04:52:20;6.20;;;3.00;;
68398;SDS011;56258;52.196;13.868;2022-07-22T04:54:47;6.53;;;3.47;;
68398;SDS011;56258;52.196;13.868;2022-07-22T04:57:14;6.18;;;3.33;;
68398;SDS011;56258;52.196;13.868;2022-07-22T04:59:41;6.53;;;3.30;;
68398;SDS011;56258;52.196;13.868;2022-07-22T05:02:07;6.23;;;3.30;;
68398;SDS011;56258;52.196;13.868;2022-07-22T05:04:34;5.95;;;3.03;;
68398;SDS011;56258;52.196;13.868;2022-07-22T05:07:01;6.05;;;3.53;;
68398;SDS011;56258;52.196;13.868;2022-07-22T05:09:29;6.60;;;3.50;;
68398;SDS011;56258;52.196;13.868;2022-07-22T05:11:57;6.10;;;3.30;;
68398;SDS011;56258;52.196;13.868;2022-07-22T05:14:23;6.40;;;3.10;;
68398;SDS011;56258;52.196;13.868;2022-07-22T05:16:50;6.13;;;3.33;;
68398;SDS011;56258;52.196;13.868;2022-07-22T05:19:17;6.20;;;3.45;;
68398;SDS011;56258;52.196;13.868;2022-07-22T05:21:44;5.85;;;3.05;;
68398;SDS011;56258;52.196;13.868;2022-07-22T05:24:11;6.10;;;3.03;;
68398;SDS011;56258;52.196;13.868;2022-07-22T05:26:38;5.83;;;3.20;;
68398;SDS011;56258;52.196;13.868;2022-07-22T05:29:04;6.47;;;3.40;;
68398;SDS011;56258;52.196;13.868;2022-07-22T05:31:31;6.03;;;3.20;;
68398;SDS011;56258;52.196;13.868;2022-07-22T05:33:58;5.68;;;2.70;;
68398;SDS011;56258;52.196;13.868;2022-07-22T05:36:25;5.75;;;3.03;;
68398;SDS011;56258;52.196;13.868;2022-07-22T05:38:51;5.80;;;2.90;;
68398;SDS011;56258;52.196;13.868;2022-07-22T05:41:19;6.20;;;2.92;;
68398;SDS011;56258;52.196;13.868;2022-07-22T05:43:45;5.82;;;3.10;;
68398;SDS011;56258;52.196;13.868;2022-07-22T05:46:12;6.05;;;2.70;;
68398;SDS011;56258;52.196;13.868;2022-07-22T05:48:39;5.60;;;2.88;;
68398;SDS011;56258;52.196;13.868;2022-07-22T05:51:10;5.83;;;3.00;;
68398;SDS011;56258;52.196;13.868;2022-07-22T05:53:41;5.60;;;2.95;;
68398;SDS011;56258;52.196;13.868;2022-07-22T05:56:09;5.90;;;2.90;;
68398;SDS011;56258;52.196;13.868;2022-07-22T05:58:38;5.80;;;2.80;;
68398;SDS011;56258;52.196;13.868;2022-07-22T06:01:05;6.50;;;3.25;;
68398;SDS011;56258;52.196;13.868;2022-07-22T06:03:32;6.10;;;3.03;;
68398;SDS011;56258;52.196;13.868;2022-07-22T06:06:00;5.78;;;2.90;;
68398;SDS011;56258;52.196;13.868;2022-07-22T06:08:28;6.28;;;3.40;;
68398;SDS011;56258;52.196;13.868;2022-07-22T06:10:56;6.95;;;2.63;;
68398;SDS011;56258;52.196;13.868;2022-07-22T06:13:23;6.75;;;3.15;;
68398;SDS011;56258;52.196;13.868;2022-07-22T06:15:50;8.47;;;3.00;;
68398;SDS011;56258;52.196;13.868;2022-07-22T06:18:17;6.15;;;2.47;;
68398;SDS011;56258;52.196;13.868;2022-07-22T06:20:44;6.90;;;2.90;;
68398;SDS011;56258;52.196;13.868;2022-07-22T06:23:11;7.70;;;2.83;;
68398;SDS011;56258;52.196;13.868;2022-07-22T06:25:38;6.60;;;2.67;;
68398;SDS011;56258;52.196;13.868;2022-07-22T06:28:09;6.33;;;2.73;;
68398;SDS011;56258;52.196;13.868;2022-07-22T06:30:36;7.35;;;2.80;;
68398;SDS011;56258;52.196;13.868;2022-07-22T06:33:03;6.47;;;2.60;;
68398;SDS011;56258;52.196;13.868;2022-07-22T06:35:30;7.18;;;2.50;;
68398;SDS011;56258;52.196;13.868;2022-07-22T06:37:57;6.15;;;2.60;;
68398;SDS011;56258;52.196;13.868;2022-07-22T06:40:33;6.23;;;2.67;;
68398;SDS011;56258;52.196;13.868;2022-07-22T06:43:01;6.88;;;2.35;;
68398;SDS011;56258;52.196;13.868;2022-07-22T06:45:29;8.77;;;3.25;;
68398;SDS011;56258;52.196;13.868;2022-07-22T06:47:56;5.85;;;2.47;;
68398;SDS011;56258;52.196;13.868;2022-07-22T06:50:23;6.10;;;2.67;;
68398;SDS011;56258;52.196;13.868;2022-07-22T06:52:52;5.93;;;2.47;;
68398;SDS011;56258;52.196;13.868;2022-07-22T06:55:19;8.18;;;2.83;;
68398;SDS011;56258;52.196;13.868;2022-07-22T06:57:45;6.15;;;2.83;;
68398;SDS011;56258;52.196;13.868;2022-07-22T07:00:12;5.97;;;2.83;;
68398;SDS011;56258;52.196;13.868;2022-07-22T07:02:39;6.18;;;2.75;;
68398;SDS011;56258;52.196;13.868;2022-07-22T07:05:06;6.03;;;2.30;;
68398;SDS011;56258;52.196;13.868;2022-07-22T07:07:45;5.78;;;2.75;;
68398;SDS011;56258;52.196;13.868;2022-07-22T07:10:12;5.82;;;2.83;;
68398;SDS011;56258;52.196;13.868;2022-07-22T07:12:41;5.78;;;2.70;;
68398;SDS011;56258;52.196;13.868;2022-07-22T07:15:08;6.35;;;2.28;;
68398;SDS011;56258;52.196;13.868;2022-07-22T07:17:51;6.67;;;2.80;;
68398;SDS011;56258;52.196;13.868;2022-07-22T07:20:19;7.28;;;2.50;;
68398;SDS011;56258;52.196;13.868;2022-07-22T07:22:46;5.75;;;2.55;;
68398;SDS011;56258;52.196;13.868;2022-07-22T07:25:13;7.90;;;2.50;;
68398;SDS011;56258;52.196;13.868;2022-07-22T07:27:50;5.90;;;2.60;;
68398;SDS011;56258;52.196;13.868;2022-07-22T07:30:19;5.97;;;2.70;;
68398;SDS011;56258;52.196;13.868;2022-07-22T07:32:47;6.22;;;2.58;;
68398;SDS011;56258;52.196;13.868;2022-07-22T07:35:13;5.80;;;2.60;;
68398;SDS011;56258;52.196;13.868;2022-07-22T07:37:40;7.10;;;2.70;;
68398;SDS011;56258;52.196;13.868;2022-07-22T07:40:07;5.50;;;2.63;;
68398;SDS011;56258;52.196;13.868;2022-07-22T07:42:34;5.60;;;2.50;;
68398;SDS011;56258;52.196;13.868;2022-07-22T07:45:10;6.00;;;2.70;;
68398;SDS011;56258;52.196;13.868;2022-07-22T07:47:37;7.03;;;2.60;;
68398;SDS011;56258;52.196;13.868;2022-07-22T07:50:05;6.03;;;2.88;;
68398;SDS011;56258;52.196;13.868;2022-07-22T07:52:40;6.18;;;2.80;;
68398;SDS011;56258;52.196;13.868;2022-07-22T07:55:17;6.37;;;2.70;;
68398;SDS011;56258;52.196;13.868;2022-07-22T07:57:45;6.18;;;2.80;;
68398;SDS011;56258;52.196;13.868;2022-07-22T08:00:17;5.50;;;2.85;;
68398;SDS011;56258;52.196;13.868;2022-07-22T08:02:47;7.53;;;2.63;;
68398;SDS011;56258;52.196;13.868;2022-07-22T08:05:15;6.45;;;2.78;;
68398;SDS011;56258;52.196;13.868;2022-07-22T08:07:43;6.37;;;2.53;;
68398;SDS011;56258;52.196;13.868;2022-07-22T08:10:09;5.72;;;2.65;;
68398;SDS011;56258;52.196;13.868;2022-07-22T08:12:56;6.07;;;2.70;;
68398;SDS011;56258;52.196;13.868;2022-07-22T08:15:26;5.45;;;2.80;;
68398;SDS011;56258;52.196;13.868;2022-07-22T08:17:53;5.10;;;2.40;;
68398;SDS011;56258;52.196;13.868;2022-07-22T08:20:21;5.53;;;2.50;;
68398;SDS011;56258;52.196;13.868;2022-07-22T08:22:49;5.93;;;2.40;;
68398;SDS011;56258;52.196;13.868;2022-07-22T08:25:16;5.70;;;2.35;;
68398;SDS011;56258;52.196;13.868;2022-07-22T08:27:43;5.90;;;2.60;;
68398;SDS011;56258;52.196;13.868;2022-07-22T08:30:10;6.05;;;3.00;;
68398;SDS011;56258;52.196;13.868;2022-07-22T08:32:37;6.43;;;2.73;;
68398;SDS011;56258;52.196;13.868;2022-07-22T08:35:04;6.38;;;2.42;;
68398;SDS011;56258;52.196;13.868;2022-07-22T08:37:32;7.15;;;2.70;;
68398;SDS011;56258;52.196;13.868;2022-07-22T08:39:58;5.45;;;2.10;;
68398;SDS011;56258;52.196;13.868;2022-07-22T08:42:25;5.72;;;2.53;;
68398;SDS011;56258;52.196;13.868;2022-07-22T08:44:52;5.40;;;2.50;;
68398;SDS011;56258;52.196;13.868;2022-07-22T08:47:28;6.15;;;2.55;;
68398;SDS011;56258;52.196;13.868;2022-07-22T08:50:07;5.30;;;2.40;;
68398;SDS011;56258;52.196;13.868;2022-07-22T08:52:34;5.75;;;2.72;;
68398;SDS011;56258;52.196;13.868;2022-07-22T08:55:07;5.15;;;2.58;;
68398;SDS011;56258;52.196;13.868;2022-07-22T08:57:34;5.77;;;2.40;;
68398;SDS011;56258;52.196;13.868;2022-07-22T09:00:11;5.25;;;2.08;;
68398;SDS011;56258;52.196;13.868;2022-07-22T09:02:41;5.35;;;2.47;;
68398;SDS011;56258;52.196;13.868;2022-07-22T09:05:09;5.20;;;1.95;;
68398;SDS011;56258;52.196;13.868;2022-07-22T09:08:00;5.35;;;2.13;;
68398;SDS011;56258;52.196;13.868;2022-07-22T09:10:31;4.77;;;1.73;;
68398;SDS011;56258;52.196;13.868;2022-07-22T09:13:00;5.25;;;2.10;;
68398;SDS011;56258;52.196;13.868;2022-07-22T09:15:30;5.78;;;2.30;;
68398;SDS011;56258;52.196;13.868;2022-07-22T09:18:00;5.35;;;2.25;;
68398;SDS011;56258;52.196;13.868;2022-07-22T09:20:31;4.80;;;2.17;;
68398;SDS011;56258;52.196;13.868;2022-07-22T09:23:00;5.43;;;2.13;;
68398;SDS011;56258;52.196;13.868;2022-07-22T09:25:31;5.10;;;2.42;;
68398;SDS011;56258;52.196;13.868;2022-07-22T09:30:35;5.78;;;2.47;;
68398;SDS011;56258;52.196;13.868;2022-07-22T09:33:19;5.00;;;1.85;;
68398;SDS011;56258;52.196;13.868;2022-07-22T09:35:48;5.10;;;2.10;;
68398;SDS011;56258;52.196;13.868;2022-07-22T09:38:18;4.82;;;2.22;;
68398;SDS011;56258;52.196;13.868;2022-07-22T09:40:52;5.38;;;2.20;;
68398;SDS011;56258;52.196;13.868;2022-07-22T09:43:20;4.97;;;2.03;;
68398;SDS011;56258;52.196;13.868;2022-07-22T09:45:49;4.72;;;2.22;;
68398;SDS011;56258;52.196;13.868;2022-07-22T09:48:24;4.60;;;2.00;;
68398;SDS011;56258;52.196;13.868;2022-07-22T09:50:52;5.07;;;2.17;;
68398;SDS011;56258;52.196;13.868;2022-07-22T09:53:25;5.20;;;1.90;;
68398;SDS011;56258;52.196;13.868;2022-07-22T09:55:57;4.88;;;2.15;;
68398;SDS011;56258;52.196;13.868;2022-07-22T09:58:25;5.53;;;2.38;;
68398;SDS011;56258;52.196;13.868;2022-07-22T10:00:54;4.93;;;2.10;;
68398;SDS011;56258;52.196;13.868;2022-07-22T10:05:59;4.78;;;2.20;;
68398;SDS011;56258;52.196;13.868;2022-07-22T10:08:37;4.70;;;1.98;;
68398;SDS011;56258;52.196;13.868;2022-07-22T10:11:05;5.38;;;2.40;;
68398;SDS011;56258;52.196;13.868;2022-07-22T10:13:33;4.60;;;2.07;;
68398;SDS011;56258;52.196;13.868;2022-07-22T10:16:01;5.00;;;2.00;;
68398;SDS011;56258;52.196;13.868;2022-07-22T10:18:28;5.03;;;2.20;;
68398;SDS011;56258;52.196;13.868;2022-07-22T10:21:09;4.80;;;1.80;;
68398;SDS011;56258;52.196;13.868;2022-07-22T10:23:42;7.03;;;2.33;;
68398;SDS011;56258;52.196;13.868;2022-07-22T10:26:53;4.63;;;1.90;;
68398;SDS011;56258;52.196;13.868;2022-07-22T10:37:36;5.10;;;2.42;;
68398;SDS011;56258;52.196;13.868;2022-07-22T10:48:04;5.13;;;1.77;;
68398;SDS011;56258;52.196;13.868;2022-07-22T10:53:12;5.40;;;2.10;;
68398;SDS011;56258;52.196;13.868;2022-07-22T10:56:00;4.70;;;2.00;;
68398;SDS011;56258;52.196;13.868;2022-07-22T11:00:58;5.00;;;1.80;;
68398;SDS011;56258;52.196;13.868;2022-07-22T11:03:28;4.75;;;2.05;;
68398;SDS011;56258;52.196;13.868;2022-07-22T11:05:56;4.87;;;1.50;;
68398;SDS011;56258;52.196;13.868;2022-07-22T11:08:38;4.72;;;2.00;;
68398;SDS011;56258;52.196;13.868;2022-07-22T11:11:06;4.40;;;1.55;;
68398;SDS011;56258;52.196;13.868;2022-07-22T11:13:37;4.88;;;1.90;;
68398;SDS011;56258;52.196;13.868;2022-07-22T11:16:17;5.10;;;2.00;;
68398;SDS011;56258;52.196;13.868;2022-07-22T11:18:49;4.50;;;1.80;;
68398;SDS011;56258;52.196;13.868;2022-07-22T11:21:21;4.75;;;1.75;;
68398;SDS011;56258;52.196;13.868;2022-07-22T11:23:50;4.90;;;2.20;;
68398;SDS011;56258;52.196;13.868;2022-07-22T11:26:20;5.10;;;2.10;;
68398;SDS011;56258;52.196;13.868;2022-07-22T11:28:59;4.38;;;1.77;;
68398;SDS011;56258;52.196;13.868;2022-07-22T11:31:26;4.60;;;1.80;;
68398;SDS011;56258;52.196;13.868;2022-07-22T11:34:03;5.13;;;2.38;;
68398;SDS011;56258;52.196;13.868;2022-07-22T11:36:42;5.43;;;2.20;;
68398;SDS011;56258;52.196;13.868;2022-07-22T11:39:11;4.05;;;1.50;;
68398;SDS011;56258;52.196;13.868;2022-07-22T11:41:40;4.35;;;1.80;;
68398;SDS011;56258;52.196;13.868;2022-07-22T11:44:07;4.73;;;1.87;;
68398;SDS011;56258;52.196;13.868;2022-07-22T11:46:35;4.40;;;1.63;;
68398;SDS011;56258;52.196;13.868;2022-07-22T11:49:04;5.20;;;1.85;;
68398;SDS011;56258;52.196;13.868;2022-07-22T11:51:32;5.30;;;1.83;;
68398;SDS011;56258;52.196;13.868;2022-07-22T11:53:59;4.80;;;2.10;;
68398;SDS011;56258;52.196;13.868;2022-07-22T11:56:27;4.90;;;1.70;;
68398;SDS011;56258;52.196;13.868;2022-07-22T11:58:54;4.07;;;1.40;;
68398;SDS011;56258;52.196;13.868;2022-07-22T12:01:24;4.93;;;2.28;;
68398;SDS011;56258;52.196;13.868;2022-07-22T12:03:52;4.68;;;1.83;;
68398;SDS011;56258;52.196;13.868;2022-07-22T12:06:21;4.80;;;1.80;;
68398;SDS011;56258;52.196;13.868;2022-07-22T12:08:51;4.97;;;1.80;;
68398;SDS011;56258;52.196;13.868;2022-07-22T12:11:22;4.45;;;1.67;;
68398;SDS011;56258;52.196;13.868;2022-07-22T12:13:53;4.28;;;1.58;;
68398;SDS011;56258;52.196;13.868;2022-07-22T12:16:29;4.60;;;1.77;;
68398;SDS011;56258;52.196;13.868;2022-07-22T12:19:04;5.20;;;1.80;;
68398;SDS011;56258;52.196;13.868;2022-07-22T12:21:36;4.37;;;1.70;;
68398;SDS011;56258;52.196;13.868;2022-07-22T12:24:30;5.55;;;1.95;;
68398;SDS011;56258;52.196;13.868;2022-07-22T12:27:19;4.57;;;1.80;;
68398;SDS011;56258;52.196;13.868;2022-07-22T12:29:47;4.40;;;1.85;;
68398;SDS011;56258;52.196;13.868;2022-07-22T12:32:16;5.18;;;1.63;;
68398;SDS011;56258;52.196;13.868;2022-07-22T12:35:03;5.00;;;1.53;;
68398;SDS011;56258;52.196;13.868;2022-07-22T12:37:33;4.40;;;1.38;;
68398;SDS011;56258;52.196;13.868;2022-07-22T12:40:11;4.47;;;1.50;;
68398;SDS011;56258;52.196;13.868;2022-07-22T12:45:32;4.50;;;1.52;;
68398;SDS011;56258;52.196;13.868;2022-07-22T12:50:29;4.50;;;1.38;;
68398;SDS011;56258;52.196;13.868;2022-07-22T12:53:01;4.40;;;1.67;;
68398;SDS011;56258;52.196;13.868;2022-07-22T12:58:08;5.45;;;1.92;;
68398;SDS011;56258;52.196;13.868;2022-07-22T13:00:36;5.30;;;1.70;;
68398;SDS011;56258;52.196;13.868;2022-07-22T13:03:05;3.97;;;1.60;;
68398;SDS011;56258;52.196;13.868;2022-07-22T13:05:33;4.18;;;1.48;;
68398;SDS011;56258;52.196;13.868;2022-07-22T13:08:01;4.80;;;1.50;;
68398;SDS011;56258;52.196;13.868;2022-07-22T13:10:34;4.65;;;1.45;;
68398;SDS011;56258;52.196;13.868;2022-07-22T13:13:01;4.80;;;1.40;;
68398;SDS011;56258;52.196;13.868;2022-07-22T13:15:28;4.82;;;1.65;;
68398;SDS011;56258;52.196;13.868;2022-07-22T13:17:55;4.78;;;1.90;;
68398;SDS011;56258;52.196;13.868;2022-07-22T13:20:22;4.78;;;1.65;;
68398;SDS011;56258;52.196;13.868;2022-07-22T13:22:49;4.20;;;1.48;;
68398;SDS011;56258;52.196;13.868;2022-07-22T13:25:17;4.50;;;1.80;;
68398;SDS011;56258;52.196;13.868;2022-07-22T13:27:44;5.32;;;1.45;;
68398;SDS011;56258;52.196;13.868;2022-07-22T13:30:10;4.00;;;1.38;;
68398;SDS011;56258;52.196;13.868;2022-07-22T13:32:39;4.60;;;1.55;;
68398;SDS011;56258;52.196;13.868;2022-07-22T13:35:14;4.40;;;1.42;;
68398;SDS011;56258;52.196;13.868;2022-07-22T13:37:42;3.77;;;1.20;;
68398;SDS011;56258;52.196;13.868;2022-07-22T13:40:09;4.25;;;1.55;;
68398;SDS011;56258;52.196;13.868;2022-07-22T13:42:37;4.20;;;1.50;;
68398;SDS011;56258;52.196;13.868;2022-07-22T13:45:04;4.40;;;1.33;;
68398;SDS011;56258;52.196;13.868;2022-07-22T13:47:34;5.25;;;1.58;;
68398;SDS011;56258;52.196;13.868;2022-07-22T13:50:02;4.23;;;1.50;;
68398;SDS011;56258;52.196;13.868;2022-07-22T13:52:29;4.20;;;1.50;;
68398;SDS011;56258;52.196;13.868;2022-07-22T13:54:55;4.38;;;1.70;;
68398;SDS011;56258;52.196;13.868;2022-07-22T13:57:22;3.97;;;1.40;;
68398;SDS011;56258;52.196;13.868;2022-07-22T13:59:49;4.30;;;1.50;;
68398;SDS011;56258;52.196;13.868;2022-07-22T14:02:16;4.10;;;1.40;;
68398;SDS011;56258;52.196;13.868;2022-07-22T14:04:43;4.47;;;1.50;;
68398;SDS011;56258;52.196;13.868;2022-07-22T14:07:10;3.95;;;1.50;;
68398;SDS011;56258;52.196;13.868;2022-07-22T14:09:38;3.90;;;1.33;;
68398;SDS011;56258;52.196;13.868;2022-07-22T14:12:05;4.68;;;1.42;;
68398;SDS011;56258;52.196;13.868;2022-07-22T14:14:32;3.93;;;1.40;;
68398;SDS011;56258;52.196;13.868;2022-07-22T14:16:59;4.25;;;1.50;;
68398;SDS011;56258;52.196;13.868;2022-07-22T14:19:28;4.72;;;1.63;;
68398;SDS011;56258;52.196;13.868;2022-07-22T14:21:56;4.55;;;1.55;;
68398;SDS011;56258;52.196;13.868;2022-07-22T14:24:23;5.07;;;2.00;;
68398;SDS011;56258;52.196;13.868;2022-07-22T14:26:51;4.40;;;1.53;;
68398;SDS011;56258;52.196;13.868;2022-07-22T14:29:17;4.20;;;1.50;;
68398;SDS011;56258;52.196;13.868;2022-07-22T14:31:47;4.82;;;1.70;;
68398;SDS011;56258;52.196;13.868;2022-07-22T14:34:14;3.83;;;1.20;;
68398;SDS011;56258;52.196;13.868;2022-07-22T14:36:41;5.18;;;1.65;;
68398;SDS011;56258;52.196;13.868;2022-07-22T14:39:07;4.00;;;1.60;;
68398;SDS011;56258;52.196;13.868;2022-07-22T14:41:34;3.63;;;1.27;;
68398;SDS011;56258;52.196;13.868;2022-07-22T14:44:01;5.20;;;2.10;;
68398;SDS011;56258;52.196;13.868;2022-07-22T14:46:27;4.13;;;1.60;;
68398;SDS011;56258;52.196;13.868;2022-07-22T14:48:54;4.63;;;1.75;;
68398;SDS011;56258;52.196;13.868;2022-07-22T14:51:21;4.63;;;1.53;;
68398;SDS011;56258;52.196;13.868;2022-07-22T14:53:49;4.50;;;1.63;;
68398;SDS011;56258;52.196;13.868;2022-07-22T14:56:16;3.63;;;1.20;;
68398;SDS011;56258;52.196;13.868;2022-07-22T14:58:43;3.95;;;1.40;;
68398;SDS011;56258;52.196;13.868;2022-07-22T15:01:10;3.60;;;1.30;;
68398;SDS011;56258;52.196;13.868;2022-07-22T15:03:39;3.97;;;1.43;;
68398;SDS011;56258;52.196;13.868;2022-07-22T15:06:07;4.28;;;1.27;;
68398;SDS011;56258;52.196;13.868;2022-07-22T15:08:34;3.50;;;1.08;;
68398;SDS011;56258;52.196;13.868;2022-07-22T15:11:02;3.25;;;1.00;;
68398;SDS011;56258;52.196;13.868;2022-07-22T15:13:28;4.47;;;1.40;;
68398;SDS011;56258;52.196;13.868;2022-07-22T15:15:55;3.90;;;1.20;;